首页
METAR-TAF:

METAR-TAF

机场 :

奥古斯塔, 喬治亞, 美国

纬度: 33-21-52N, 经度: 081-57-48W, 海拔: 44米

当前天气观测

该预报发布于38分钟前的05:53 UTC
风速6节,风向西南
温度 11°C
湿度 76%
气压 1012 hPa
能見度: 16.1公里
天空无云

METAR: KAGS 170553Z AUTO 23006KT 10SM CLR 11/07 A2989 RMK AO2 SLP120 T01060072 10211 20106 51009 $

时间: 02:31 (06:31 UTC)

预报

该预报发布于58分钟前的05:33 UTC
预报有效从17日的 06点(UTC)到 18日的 06点(UTC)
风速6节,风向西转西北
能見度: 10公里
散云层高于25000英尺
从 17日的 2300点(UTC)
风速3节,风向多变
能見度: 10公里
天空无云

TAF: KAGS 170533Z 1706/1806 30006KT P6SM SCT250 FM172300 VRB03KT P6SM SKC

超过4000个机场的气象观测和天气预报(METAR&TAF报告)。

可查询的气象台以黄色和红色小点在地图上表示。

将鼠标移到小点上方,可查看气象台名称。

然后点击查看天气观测和预报。

如需切换地图:点击带黑十字的绿色按钮放大地图;点击带横线的绿色按钮缩小地图;或者点击绿色箭头查看邻近地区的地图。


METAR-TAF: